createdAt,value
2018-05-12T00:00:32.383Z,13.50
2018-05-12T00:02:59.343Z,13.60
2018-05-12T00:05:26.287Z,13.60
2018-05-12T00:07:53.246Z,13.60
2018-05-12T00:10:19.434Z,13.60
2018-05-12T00:12:45.653Z,13.60
2018-05-12T00:15:11.879Z,13.60
2018-05-12T00:17:38.110Z,13.60
2018-05-12T00:20:05.287Z,13.60
2018-05-12T00:22:31.540Z,13.60
2018-05-12T00:24:57.739Z,13.60
2018-05-12T00:27:24.703Z,13.70
2018-05-12T00:29:51.664Z,13.60
2018-05-12T00:32:17.887Z,13.60
2018-05-12T00:34:44.824Z,13.60
2018-05-12T00:37:11.931Z,13.60
2018-05-12T00:39:38.133Z,13.60
2018-05-12T00:42:04.346Z,13.60
2018-05-12T00:44:30.567Z,13.60
2018-05-12T00:46:57.530Z,13.60
2018-05-12T00:49:23.728Z,13.50
2018-05-12T00:51:50.687Z,13.60
2018-05-12T00:54:17.627Z,13.50
2018-05-12T00:56:44.740Z,13.50
2018-05-12T00:59:11.707Z,13.40
2018-05-12T01:01:38.647Z,13.40
2018-05-12T01:04:06.600Z,13.40
2018-05-12T01:06:33.137Z,13.40
2018-05-12T01:08:59.728Z,13.50
2018-05-12T01:11:26.531Z,13.50
2018-05-12T01:13:52.800Z,13.50
2018-05-12T01:16:19.087Z,13.50
2018-05-12T01:18:46.050Z,13.40
2018-05-12T01:21:13.008Z,13.40
2018-05-12T01:23:40.222Z,13.40
2018-05-12T01:26:06.455Z,13.40
2018-05-12T01:28:39.582Z,13.40
2018-05-12T01:31:06.514Z,13.30
2018-05-12T01:33:32.735Z,13.30
2018-05-12T01:35:58.931Z,13.20
2018-05-12T01:38:25.149Z,13.10
2018-05-12T01:40:51.333Z,13.00
2018-05-12T01:43:18.288Z,13.00
2018-05-12T01:45:45.218Z,12.90
2018-05-12T01:48:11.434Z,12.90
2018-05-12T01:50:37.627Z,12.80
2018-05-12T01:53:03.856Z,12.90
2018-05-12T01:55:30.051Z,12.90
2018-05-12T01:57:56.276Z,12.90
2018-05-12T02:00:23.212Z,12.90
2018-05-12T02:02:50.175Z,13.00
2018-05-12T02:05:17.114Z,13.00
2018-05-12T02:07:44.071Z,13.00
2018-05-12T02:10:10.267Z,13.00
2018-05-12T02:12:36.483Z,13.00
2018-05-12T02:15:02.694Z,13.10
2018-05-12T02:17:28.919Z,13.10
2018-05-12T02:19:55.144Z,13.00
2018-05-12T02:22:21.354Z,13.00
2018-05-12T02:24:47.547Z,12.90
2018-05-12T02:27:14.595Z,13.00
2018-05-12T02:29:41.543Z,13.00
2018-05-12T02:32:08.496Z,13.10
2018-05-12T02:34:34.728Z,13.10
2018-05-12T02:37:01.687Z,13.10
2018-05-12T02:39:27.893Z,13.10
2018-05-12T02:41:55.013Z,13.20
2018-05-12T02:44:21.219Z,13.10
2018-05-12T02:46:47.420Z,13.10
2018-05-12T02:49:13.639Z,13.10
2018-05-12T02:51:40.576Z,12.90
2018-05-12T02:54:07.531Z,12.90
2018-05-12T02:56:34.483Z,12.60
2018-05-12T02:59:01.441Z,12.50
2018-05-12T03:01:27.627Z,12.40
2018-05-12T03:03:53.851Z,12.30
2018-05-12T03:06:20.043Z,12.30
2018-05-12T03:08:46.397Z,12.40
2018-05-12T03:11:12.592Z,12.40
2018-05-12T03:13:38.780Z,12.40
2018-05-12T03:16:05.540Z,12.40
2018-05-12T03:18:32.475Z,12.10
2018-05-12T03:20:59.434Z,12.20
2018-05-12T03:23:26.403Z,12.20
2018-05-12T03:25:52.648Z,12.20
2018-05-12T03:28:18.871Z,12.30
2018-05-12T03:30:45.063Z,12.20
2018-05-12T03:33:12.026Z,11.90
2018-05-12T03:35:38.223Z,11.90
2018-05-12T03:38:04.452Z,11.70
2018-05-12T03:40:30.652Z,11.70
2018-05-12T03:42:56.938Z,11.70
2018-05-12T03:45:23.153Z,11.70
2018-05-12T03:47:50.119Z,11.60
2018-05-12T03:50:16.327Z,11.60
2018-05-12T03:52:42.699Z,11.60
2018-05-12T03:55:08.967Z,11.60
2018-05-12T03:57:35.172Z,11.50
2018-05-12T04:00:01.415Z,11.60
2018-05-12T04:02:28.379Z,11.70
2018-05-12T04:05:07.051Z,11.60
2018-05-12T04:07:46.531Z,11.60
2018-05-12T04:13:15.842Z,11.70
2018-05-12T04:15:42.068Z,11.80
2018-05-12T04:18:08.266Z,11.80
2018-05-12T04:20:34.482Z,11.80
2018-05-12T04:23:00.679Z,11.80
2018-05-12T04:25:26.903Z,11.80
2018-05-12T04:27:53.128Z,11.80
2018-05-12T04:30:19.347Z,11.90
2018-05-12T04:32:45.535Z,12.00
2018-05-12T04:35:11.763Z,12.10
2018-05-12T04:37:37.960Z,12.00
2018-05-12T04:40:04.890Z,11.80
2018-05-12T04:42:31.143Z,11.80
2018-05-12T04:44:58.079Z,11.80
2018-05-12T04:47:25.047Z,11.70
2018-05-12T04:49:51.238Z,11.70
2018-05-12T04:52:17.479Z,11.70
2018-05-12T04:54:44.483Z,11.70
2018-05-12T04:57:10.708Z,11.70
2018-05-12T04:59:36.900Z,11.70
2018-05-12T05:02:04.000Z,11.90
2018-05-12T05:04:30.622Z,11.90
2018-05-12T05:06:56.829Z,12.00
2018-05-12T05:09:23.050Z,12.20
2018-05-12T05:11:49.983Z,12.30
2018-05-12T05:14:17.022Z,12.70
2018-05-12T05:16:43.170Z,12.70
2018-05-12T05:19:09.390Z,13.10
2018-05-12T05:21:36.327Z,13.70
2018-05-12T05:24:03.295Z,13.90
2018-05-12T05:26:29.519Z,13.90
2018-05-12T05:28:56.483Z,13.90
2018-05-12T05:31:22.687Z,13.90
2018-05-12T05:33:49.647Z,14.10
2018-05-12T05:36:15.870Z,14.10
2018-05-12T05:38:42.827Z,14.10
2018-05-12T05:41:09.015Z,14.10
2018-05-12T05:43:35.235Z,13.90
2018-05-12T05:46:01.433Z,13.90
2018-05-12T05:48:27.660Z,13.90
2018-05-12T05:50:53.855Z,13.90
2018-05-12T05:53:20.878Z,13.70
2018-05-12T05:55:47.085Z,13.70
2018-05-12T05:58:13.302Z,13.60
2018-05-12T06:00:39.495Z,13.60
2018-05-12T06:03:05.722Z,13.80
2018-05-12T06:05:32.658Z,14.40
2018-05-12T06:07:59.590Z,14.40
2018-05-12T06:10:25.821Z,14.30
2018-05-12T06:12:52.767Z,15.00
2018-05-12T06:15:19.739Z,15.30
2018-05-12T06:17:46.303Z,15.30
2018-05-12T06:20:12.739Z,15.60
2018-05-12T06:22:38.935Z,15.60
2018-05-12T06:25:05.891Z,15.30
2018-05-12T06:27:32.103Z,15.30
2018-05-12T06:29:59.062Z,15.40
2018-05-12T06:32:25.259Z,15.40
2018-05-12T06:34:51.484Z,15.40
2018-05-12T06:37:18.431Z,16.60
2018-05-12T06:39:44.683Z,16.60
2018-05-12T06:42:11.619Z,16.70
2018-05-12T06:44:38.583Z,16.30
2018-05-12T06:47:04.815Z,16.30
2018-05-12T06:49:34.003Z,16.30
2018-05-12T06:52:00.934Z,16.00
2018-05-12T06:54:27.891Z,16.20
2018-05-12T06:56:54.827Z,16.00
2018-05-12T06:59:21.787Z,15.90
2018-05-12T07:01:48.735Z,15.90
2018-05-12T07:04:15.690Z,16.10
2018-05-12T07:06:41.894Z,16.10
2018-05-12T07:09:08.859Z,16.70
2018-05-12T07:11:35.063Z,16.70
2018-05-12T07:14:01.284Z,17.10
2018-05-12T07:16:27.483Z,17.10
2018-05-12T07:18:53.711Z,17.10
2018-05-12T07:21:19.915Z,17.40
2018-05-12T07:23:46.211Z,17.50
2018-05-12T07:26:12.455Z,17.50
2018-05-12T07:28:39.415Z,17.90
2018-05-12T07:31:05.611Z,17.90
2018-05-12T07:33:31.835Z,18.30
2018-05-12T07:35:58.483Z,18.90
2018-05-12T07:38:24.698Z,19.20
2018-05-12T07:40:50.890Z,19.50
2018-05-12T07:43:17.178Z,19.90
2018-05-12T07:45:44.115Z,19.80
2018-05-12T07:48:11.071Z,19.80
2018-05-12T07:50:38.007Z,19.50
2018-05-12T07:53:04.491Z,19.50
2018-05-12T07:55:30.686Z,19.60
2018-05-12T07:57:57.647Z,20.00
2018-05-12T08:00:23.851Z,20.00
2018-05-12T08:02:50.899Z,20.00
2018-05-12T08:05:17.902Z,20.00
2018-05-12T08:07:44.107Z,20.00
2018-05-12T08:10:10.395Z,20.40
2018-05-12T08:12:36.594Z,20.40
2018-05-12T08:15:02.817Z,20.60
2018-05-12T08:17:29.020Z,20.80
2018-05-12T08:19:55.307Z,21.20
2018-05-12T08:22:21.506Z,21.50
2018-05-12T08:24:47.726Z,22.30
2018-05-12T08:27:13.951Z,22.50
2018-05-12T08:29:40.254Z,23.40
2018-05-12T08:32:06.504Z,24.40
2018-05-12T08:34:32.723Z,25.80
2018-05-12T08:36:58.915Z,25.80
2018-05-12T08:39:25.132Z,25.00
2018-05-12T08:41:51.326Z,25.00
2018-05-12T08:44:17.681Z,26.00
2018-05-12T08:46:43.875Z,26.70
2018-05-12T08:49:10.063Z,26.80
2018-05-12T08:51:36.291Z,26.80
2018-05-12T08:54:03.263Z,27.30
2018-05-12T08:56:29.988Z,27.30
2018-05-12T08:58:56.923Z,28.10
2018-05-12T09:01:23.143Z,28.10
2018-05-12T09:03:49.339Z,29.00
2018-05-12T09:06:15.603Z,28.90
2018-05-12T09:08:41.799Z,29.00
2018-05-12T09:11:08.023Z,29.80
2018-05-12T09:13:34.210Z,27.80
2018-05-12T09:16:01.175Z,29.80
2018-05-12T09:18:27.362Z,29.80
2018-05-12T09:20:53.580Z,30.00
2018-05-12T09:23:20.543Z,30.50
2018-05-12T09:25:46.803Z,30.40
2018-05-12T09:28:13.002Z,31.00
2018-05-12T09:30:39.288Z,31.00
2018-05-12T09:33:05.487Z,30.10
2018-05-12T09:35:32.438Z,28.90
2018-05-12T09:37:58.626Z,28.90
2018-05-12T09:40:24.839Z,27.40
2018-05-12T09:42:51.031Z,26.80
2018-05-12T09:45:17.264Z,27.80
2018-05-12T09:47:43.455Z,29.10
2018-05-12T09:50:09.675Z,29.30
2018-05-12T09:52:35.873Z,29.10
2018-05-12T09:55:02.091Z,28.60
2018-05-12T09:57:28.283Z,29.00
2018-05-12T09:59:55.479Z,28.10
2018-05-12T10:02:21.675Z,28.00
2018-05-12T10:04:47.891Z,27.30
2018-05-12T10:07:14.826Z,27.50
2018-05-12T10:09:41.845Z,28.10
2018-05-12T10:12:08.016Z,28.10
2018-05-12T10:14:35.332Z,27.20
2018-05-12T10:17:01.531Z,27.10
2018-05-12T10:19:27.732Z,26.70
2018-05-12T10:21:53.980Z,26.70
2018-05-12T10:24:20.208Z,27.40
2018-05-12T10:26:47.618Z,27.60
2018-05-12T10:29:13.817Z,28.80
2018-05-12T10:31:40.035Z,29.60
2018-05-12T10:34:06.227Z,29.00
2018-05-12T10:36:33.183Z,28.70
2018-05-12T10:38:59.535Z,28.70
2018-05-12T10:41:25.688Z,27.80
2018-05-12T10:43:51.902Z,27.70
2018-05-12T10:46:18.123Z,28.90
2018-05-12T10:48:44.314Z,30.30
2018-05-12T10:51:11.279Z,31.70
2018-05-12T10:53:37.535Z,31.70
2018-05-12T10:56:03.755Z,32.30
2018-05-12T10:58:30.767Z,32.30
2018-05-12T11:00:57.759Z,34.30
2018-05-12T11:03:23.972Z,34.20
2018-05-12T11:05:50.176Z,32.30
2018-05-12T11:08:16.439Z,32.60
2018-05-12T11:10:42.671Z,33.50
2018-05-12T11:13:08.871Z,32.60
2018-05-12T11:15:35.067Z,33.40
2018-05-12T11:18:02.766Z,33.90
2018-05-12T11:20:28.961Z,33.90
2018-05-12T11:22:55.183Z,34.00
2018-05-12T11:25:21.382Z,34.70
2018-05-12T11:27:47.618Z,35.50
2018-05-12T11:30:13.814Z,36.80
2018-05-12T11:32:40.039Z,36.50
2018-05-12T11:35:06.238Z,36.50
2018-05-12T11:37:33.508Z,37.10
2018-05-12T11:40:00.448Z,34.00
2018-05-12T11:42:27.415Z,34.80
2018-05-12T11:44:53.681Z,34.80
2018-05-12T11:47:19.902Z,34.80
2018-05-12T11:49:46.203Z,35.80
2018-05-12T11:52:12.371Z,35.90
2018-05-12T11:54:38.571Z,35.20
2018-05-12T11:57:04.795Z,34.30
2018-05-12T11:59:30.990Z,33.20
2018-05-12T12:01:57.960Z,33.90
2018-05-12T12:04:24.159Z,33.90
2018-05-12T12:06:50.387Z,33.40
2018-05-12T12:09:16.589Z,31.90
2018-05-12T12:11:42.801Z,30.90
2018-05-12T12:14:08.997Z,29.70
2018-05-12T12:16:36.075Z,28.70
2018-05-12T12:19:02.186Z,28.70
2018-05-12T12:21:28.439Z,28.70
2018-05-12T12:23:54.907Z,28.60
2018-05-12T12:26:21.155Z,28.90
2018-05-12T12:28:47.388Z,29.20
2018-05-12T12:31:14.347Z,28.10
2018-05-12T12:33:40.628Z,28.10
2018-05-12T12:36:06.827Z,28.20
2018-05-12T12:38:33.047Z,28.70
2018-05-12T12:40:59.270Z,28.40
2018-05-12T12:43:25.467Z,29.00
2018-05-12T12:45:52.427Z,33.30
2018-05-12T12:48:19.370Z,33.30
2018-05-12T12:50:46.715Z,31.20
2018-05-12T12:53:13.651Z,30.70
2018-05-12T12:55:39.883Z,30.60
2018-05-12T12:58:06.819Z,31.80
2018-05-12T13:00:33.040Z,31.80
2018-05-12T13:02:59.303Z,31.70
2018-05-12T13:05:26.263Z,31.80
2018-05-12T13:07:52.463Z,31.80
2018-05-12T13:10:18.678Z,33.10
2018-05-12T13:12:44.879Z,32.80
2018-05-12T13:15:11.140Z,32.40
2018-05-12T13:17:37.342Z,32.90
2018-05-12T13:20:03.684Z,33.00
2018-05-12T13:22:29.874Z,32.60
2018-05-12T13:24:56.908Z,32.50
2018-05-12T13:27:23.150Z,33.90
2018-05-12T13:29:49.370Z,35.20
2018-05-12T13:32:15.597Z,34.60
2018-05-12T13:34:42.575Z,33.50
2018-05-12T13:37:08.867Z,33.50
2018-05-12T13:39:35.844Z,35.10
2018-05-12T13:42:02.371Z,35.00
2018-05-12T13:44:28.740Z,35.60
2018-05-12T13:46:54.939Z,36.40
2018-05-12T13:49:21.163Z,35.90
2018-05-12T13:51:47.358Z,35.80
2018-05-12T13:54:14.319Z,32.60
2018-05-12T13:56:40.515Z,32.60
2018-05-12T13:59:06.747Z,33.10
2018-05-12T14:01:32.944Z,33.90
2018-05-12T14:03:59.172Z,34.90
2018-05-12T14:06:25.442Z,35.00
2018-05-12T14:08:51.663Z,34.10
2018-05-12T14:11:18.599Z,33.00
2018-05-12T14:13:44.822Z,33.00
2018-05-12T14:16:11.052Z,33.30
2018-05-12T14:18:37.262Z,33.90
2018-05-12T14:21:03.464Z,34.00
2018-05-12T14:23:30.571Z,34.00
2018-05-12T14:25:56.795Z,34.00
2018-05-12T14:28:23.179Z,33.80
2018-05-12T14:30:49.371Z,33.80
2018-05-12T14:33:16.448Z,33.50
2018-05-12T14:35:42.707Z,33.50
2018-05-12T14:38:08.927Z,33.60
2018-05-12T14:40:35.124Z,33.70
2018-05-12T14:43:02.087Z,33.70
2018-05-12T14:45:28.283Z,33.60
2018-05-12T14:47:55.583Z,33.30
2018-05-12T14:50:22.019Z,33.20
2018-05-12T14:52:48.556Z,33.90
2018-05-12T14:55:14.803Z,34.30
2018-05-12T14:57:41.241Z,34.30
2018-05-12T15:00:07.468Z,33.70
2018-05-12T15:02:33.699Z,34.10
2018-05-12T15:04:59.898Z,34.00
2018-05-12T15:07:26.110Z,33.00
2018-05-12T15:09:52.302Z,32.40
2018-05-12T15:12:18.537Z,31.90
2018-05-12T15:14:44.828Z,31.70
2018-05-12T15:17:10.963Z,31.90
2018-05-12T15:19:37.186Z,32.10
2018-05-12T15:22:03.387Z,31.90
2018-05-12T15:24:29.607Z,31.60
2018-05-12T15:26:55.822Z,31.90
2018-05-12T15:29:22.777Z,32.00
2018-05-12T15:31:49.714Z,31.80
2018-05-12T15:34:16.679Z,31.70
2018-05-12T15:36:42.862Z,31.70
2018-05-12T15:39:09.751Z,31.70
2018-05-12T15:41:36.007Z,31.90
2018-05-12T15:44:02.313Z,31.90
2018-05-12T15:46:28.462Z,31.90
2018-05-12T15:48:54.883Z,31.60
2018-05-12T15:51:21.147Z,31.10
2018-05-12T15:53:47.362Z,30.70
2018-05-12T15:56:13.555Z,30.50
2018-05-12T15:58:39.775Z,30.20
2018-05-12T16:01:06.711Z,30.20
2018-05-12T16:03:33.675Z,30.50
2018-05-12T16:05:59.902Z,30.40
2018-05-12T16:08:26.118Z,29.80
2018-05-12T16:10:53.114Z,27.90
2018-05-12T16:13:19.399Z,27.80
2018-05-12T16:15:46.339Z,26.80
2018-05-12T16:18:13.374Z,26.40
2018-05-12T16:20:39.571Z,26.40
2018-05-12T16:23:05.787Z,26.00
2018-05-12T16:25:31.979Z,25.60
2018-05-12T16:27:58.968Z,25.20
2018-05-12T16:30:25.235Z,25.20
2018-05-12T16:32:51.452Z,25.00
2018-05-12T16:35:17.652Z,24.90
2018-05-12T16:37:43.876Z,24.60
2018-05-12T16:40:10.075Z,24.30
2018-05-12T16:42:36.301Z,24.10
2018-05-12T16:45:02.508Z,23.80
2018-05-12T16:47:28.727Z,23.80
2018-05-12T16:49:55.752Z,23.40
2018-05-12T16:52:22.676Z,23.30
2018-05-12T16:54:48.866Z,23.20
2018-05-12T16:57:15.832Z,23.30
2018-05-12T16:59:42.027Z,23.30
2018-05-12T17:02:09.028Z,23.00
2018-05-12T17:04:35.222Z,23.00
2018-05-12T17:07:02.159Z,22.90
2018-05-12T17:09:28.378Z,22.90
2018-05-12T17:11:54.599Z,22.70
2018-05-12T17:14:20.802Z,22.70
2018-05-12T17:16:47.027Z,22.60
2018-05-12T17:19:13.286Z,22.40
2018-05-12T17:21:39.510Z,22.20
2018-05-12T17:24:05.707Z,21.90
2018-05-12T17:26:32.306Z,21.70
2018-05-12T17:28:59.252Z,21.40
2018-05-12T17:31:26.215Z,21.20
2018-05-12T17:33:52.415Z,21.20
2018-05-12T17:36:18.747Z,21.30
2018-05-12T17:38:44.942Z,21.20
2018-05-12T17:41:11.159Z,21.10
2018-05-12T17:43:37.358Z,20.90
2018-05-12T17:46:03.579Z,20.80
2018-05-12T17:48:30.764Z,20.80
2018-05-12T17:50:56.978Z,20.80
2018-05-12T17:53:23.194Z,20.80
2018-05-12T17:55:50.155Z,20.50
2018-05-12T17:58:16.347Z,20.50
2018-05-12T18:00:42.584Z,20.50
2018-05-12T18:03:09.523Z,20.20
2018-05-12T18:05:35.755Z,20.20
2018-05-12T18:08:02.695Z,20.00
2018-05-12T18:10:28.891Z,20.00
2018-05-12T18:12:55.127Z,19.90
2018-05-12T18:15:21.319Z,19.80
2018-05-12T18:17:47.539Z,19.70
2018-05-12T18:20:13.730Z,19.60
2018-05-12T18:22:39.971Z,19.50
2018-05-12T18:25:06.907Z,19.30
2018-05-12T18:27:33.132Z,19.30
2018-05-12T18:29:59.371Z,19.20
2018-05-12T18:32:25.563Z,19.20
2018-05-12T18:34:51.779Z,19.10
2018-05-12T18:37:17.980Z,19.00
2018-05-12T18:39:44.200Z,18.90
2018-05-12T18:42:11.139Z,18.70
2018-05-12T18:44:38.099Z,18.60
2018-05-12T18:47:04.299Z,18.60
2018-05-12T18:49:30.515Z,18.60
2018-05-12T18:51:56.707Z,18.50
2018-05-12T18:54:22.936Z,18.40
2018-05-12T18:56:49.143Z,18.40
2018-05-12T18:59:15.355Z,18.30
2018-05-12T19:01:42.297Z,18.10
2018-05-12T19:04:09.825Z,18.00
2018-05-12T19:06:36.082Z,18.00
2018-05-12T19:09:02.363Z,18.00
2018-05-12T19:11:28.580Z,17.90
2018-05-12T19:13:54.804Z,17.80
2018-05-12T19:16:21.576Z,17.70
2018-05-12T19:18:47.766Z,17.60
2018-05-12T19:21:13.995Z,17.70
2018-05-12T19:23:40.239Z,17.60
2018-05-12T19:26:06.486Z,17.60
2018-05-12T19:28:32.727Z,17.60
2018-05-12T19:30:58.924Z,17.60
2018-05-12T19:33:25.127Z,17.50
2018-05-12T19:35:52.090Z,17.50
2018-05-12T19:38:18.314Z,17.50
2018-05-12T19:40:44.542Z,17.50
2018-05-12T19:43:10.776Z,17.50
2018-05-12T19:45:36.999Z,17.50
2018-05-12T19:48:03.254Z,17.50
2018-05-12T19:50:29.497Z,17.60
2018-05-12T19:52:55.711Z,17.50
2018-05-12T19:55:21.936Z,17.50
2018-05-12T19:57:48.131Z,17.50
2018-05-12T20:00:15.095Z,17.60
2018-05-12T20:02:41.288Z,17.60
2018-05-12T20:05:07.507Z,17.60
2018-05-12T20:07:33.713Z,17.60
2018-05-12T20:09:59.956Z,17.60
2018-05-12T20:12:26.177Z,17.60
2018-05-12T20:14:52.369Z,17.60
2018-05-12T20:17:18.600Z,17.60
2018-05-12T20:19:44.791Z,17.60
2018-05-12T20:22:11.020Z,17.50
2018-05-12T20:24:37.215Z,17.50
2018-05-12T20:27:03.460Z,17.50
2018-05-12T20:29:29.655Z,17.50
2018-05-12T20:31:56.356Z,17.40
2018-05-12T20:34:23.295Z,17.20
2018-05-12T20:36:50.266Z,17.10
2018-05-12T20:39:17.205Z,17.00
2018-05-12T20:41:44.187Z,16.90
2018-05-12T20:44:10.388Z,17.00
2018-05-12T20:46:37.350Z,16.80
2018-05-12T20:49:03.548Z,16.80
2018-05-12T20:51:29.802Z,16.70
2018-05-12T20:53:55.987Z,16.60
2018-05-12T20:56:22.209Z,16.60
2018-05-12T20:58:48.402Z,16.70
2018-05-12T21:01:14.616Z,16.60
2018-05-12T21:03:40.811Z,16.60
2018-05-12T21:06:07.032Z,16.60
2018-05-12T21:08:33.254Z,16.60
2018-05-12T21:10:59.451Z,16.60
2018-05-12T21:13:25.674Z,16.60
2018-05-12T21:15:51.876Z,16.60
2018-05-12T21:18:18.175Z,16.60
2018-05-12T21:20:44.370Z,16.70
2018-05-12T21:23:10.592Z,16.70
2018-05-12T21:25:36.792Z,16.70
2018-05-12T21:28:03.047Z,16.70
2018-05-12T21:30:29.309Z,16.70
2018-05-12T21:32:55.587Z,16.70
2018-05-12T21:35:21.847Z,16.70
2018-05-12T21:37:48.374Z,16.70
2018-05-12T21:40:14.575Z,16.70
2018-05-12T21:42:40.831Z,16.70
2018-05-12T21:45:07.023Z,16.80
2018-05-12T21:47:33.983Z,16.80
2018-05-12T21:50:00.175Z,16.80
2018-05-12T21:52:26.420Z,16.80
2018-05-12T21:54:53.365Z,16.70
2018-05-12T21:57:21.140Z,16.70
2018-05-12T21:59:48.083Z,16.70
2018-05-12T22:02:15.023Z,16.60
2018-05-12T22:04:41.985Z,16.50
2018-05-12T22:07:08.927Z,16.40
2018-05-12T22:09:35.887Z,16.40
2018-05-12T22:12:02.115Z,16.40
2018-05-12T22:14:28.313Z,16.30
2018-05-12T22:16:54.720Z,16.20
2018-05-12T22:19:20.910Z,16.20
2018-05-12T22:21:47.098Z,16.10
2018-05-12T22:24:14.064Z,16.10
2018-05-12T22:26:41.024Z,16.10
2018-05-12T22:29:07.247Z,16.00
2018-05-12T22:31:34.202Z,16.00
2018-05-12T22:34:00.431Z,16.00
2018-05-12T22:36:26.632Z,16.10
2018-05-12T22:38:53.610Z,16.10
2018-05-12T22:41:20.072Z,16.10
2018-05-12T22:43:46.298Z,16.00
2018-05-12T22:46:12.496Z,16.00
2018-05-12T22:48:38.718Z,16.00
2018-05-12T22:51:04.915Z,16.00
2018-05-12T22:53:31.875Z,15.80
2018-05-12T22:55:58.874Z,15.80
2018-05-12T22:58:25.094Z,15.80
2018-05-12T23:00:51.280Z,15.70
2018-05-12T23:03:18.238Z,15.70
2018-05-12T23:05:52.227Z,15.70
2018-05-12T23:08:19.195Z,15.60
2018-05-12T23:10:46.135Z,15.60
2018-05-12T23:13:13.119Z,15.60
2018-05-12T23:15:39.310Z,15.60
2018-05-12T23:18:06.243Z,15.50
2018-05-12T23:20:32.468Z,15.40
2018-05-12T23:22:59.411Z,15.30
2018-05-12T23:25:26.374Z,15.10
2018-05-12T23:27:53.344Z,15.10
2018-05-12T23:30:19.554Z,15.10
2018-05-12T23:32:46.487Z,15.00
2018-05-12T23:35:13.447Z,15.00
2018-05-12T23:37:40.383Z,15.10
2018-05-12T23:40:07.352Z,15.10
2018-05-12T23:42:33.543Z,15.10
2018-05-12T23:45:00.503Z,15.10
2018-05-12T23:47:27.439Z,15.10
2018-05-12T23:49:54.403Z,15.10
2018-05-12T23:52:21.343Z,15.10
2018-05-12T23:54:48.311Z,15.10
2018-05-12T23:57:14.498Z,15.10
2018-05-12T23:59:40.714Z,15.10
